Time;durP1;ratioP1;P1;durP2;ratioP2;P2;SDS_P1;SDS_P2;PMS_P1;PMS_P2;Temp;Humidity;BMP_temperature;BMP_pressure;BME280_temperature;BME280_humidity;BME280_pressure;Samples;Min_cycle;Max_cycle;Signal;HPM_P1;HPM_P2
2023/10/18 00:03:19;;;;;;;;;;;;;;;18.71;55.00;99525.53;10286369;28;964;-78
2023/10/18 00:08:17;;;;;;;;;;;;;;;18.71;54.90;99523.72;10287979;28;803;-78
2023/10/18 00:13:13;;;;;;;;;;;;;;;18.70;54.99;99526.44;10286852;28;1964;-77
2023/10/18 00:18:11;;;;;;;;;;;;;;;18.68;55.09;99521.25;10286698;28;814;-77
2023/10/18 00:23:06;;;;;;;;;;;;;;;18.66;55.09;99516.97;10287056;28;853;-77
2023/10/18 00:28:03;;;;;;;;;;;;;;;18.65;54.89;99504.69;10286975;28;797;-77
2023/10/18 00:32:59;;;;;;;;;;;;;;;18.67;54.82;99506.31;10286673;28;1897;-78
2023/10/18 00:37:55;;;;;;;;;;;;;;;18.68;54.73;99488.69;10285465;28;913;-78
2023/10/18 00:42:52;;;;;;;;;;;;;;;18.66;55.10;99477.38;10285850;28;880;-77
2023/10/18 00:47:48;;;;;;;;;;;;;;;18.64;55.25;99476.59;10286191;28;906;-77
2023/10/18 00:52:44;;;;;;;;;;;;;;;18.61;55.12;99478.47;10285644;28;1894;-77
2023/10/18 00:57:40;;;;;;;;;;;;;;;18.61;54.96;99467.91;10285860;28;826;-78
2023/10/18 01:02:39;;;;;;;;;;;;;;;18.63;54.97;99454.63;10285882;28;788;-77
2023/10/18 01:07:35;;;;;;;;;;;;;;;18.64;55.09;99452.84;10285625;28;882;-77
2023/10/18 01:12:34;;;;;;;;;;;;;;;18.61;55.01;99454.69;10284804;28;1902;-77
2023/10/18 01:17:33;;;;;;;;;;;;;;;18.58;55.15;99449.59;10285207;28;866;-77
2023/10/18 01:22:30;;;;;;;;;;;;;;;18.58;55.04;99446.94;10284645;28;957;-78
2023/10/18 01:27:26;;;;;;;;;;;;;;;18.60;55.05;99445.09;10285352;28;871;-77
2023/10/18 01:32:22;;;;;;;;;;;;;;;18.59;54.88;99443.34;10285179;28;1878;-77
2023/10/18 01:37:20;;;;;;;;;;;;;;;18.57;55.01;99428.53;10285020;28;881;-78
2023/10/18 01:42:17;;;;;;;;;;;;;;;18.56;55.33;99437.41;10284230;28;953;-77
2023/10/18 01:47:14;;;;;;;;;;;;;;;18.56;54.96;99427.69;10284996;28;897;-77
2023/10/18 01:52:12;;;;;;;;;;;;;;;18.57;54.83;99426.75;10283697;28;1961;-77
2023/10/18 01:57:07;;;;;;;;;;;;;;;18.58;54.86;99415.25;10283982;28;875;-77
2023/10/18 02:02:10;;;;;;;;;;;;;;;18.56;55.05;99409.22;10284499;28;995;-77
2023/10/18 02:07:07;;;;;;;;;;;;;;;18.54;55.04;99404.94;10283467;28;1360;-78
2023/10/18 02:12:04;;;;;;;;;;;;;;;18.52;55.14;99401.53;10283702;28;1953;-77
2023/10/18 02:17:00;;;;;;;;;;;;;;;18.53;55.07;99404.09;10283586;28;996;-77
2023/10/18 02:21:59;;;;;;;;;;;;;;;18.54;54.97;99403.16;10283589;28;770;-77
2023/10/18 02:26:56;;;;;;;;;;;;;;;18.54;55.05;99404.94;10284568;28;933;-77
2023/10/18 02:31:56;;;;;;;;;;;;;;;18.50;55.04;99401.63;10292249;28;1948;-77
2023/10/18 02:36:52;;;;;;;;;;;;;;;18.47;55.10;99392.97;10290614;28;909;-78
2023/10/18 02:41:48;;;;;;;;;;;;;;;18.50;55.13;99387.56;10289915;28;1015;-77
2023/10/18 02:46:47;;;;;;;;;;;;;;;18.49;55.16;99386.69;10290256;28;882;-77
2023/10/18 02:51:43;;;;;;;;;;;;;;;18.49;55.10;99391.97;10290174;28;1956;-78
2023/10/18 02:56:39;;;;;;;;;;;;;;;18.46;55.21;99378.09;10289381;28;896;-78
2023/10/18 03:01:42;;;;;;;;;;;;;;;18.45;55.17;99364.06;10289716;28;762;-78
2023/10/18 03:06:38;;;;;;;;;;;;;;;18.48;54.95;99357.75;10289573;28;894;-78
2023/10/18 03:11:36;;;;;;;;;;;;;;;18.46;55.05;99357.84;10288863;28;1910;-77
2023/10/18 03:21:32;;;;;;;;;;;;;;;18.42;55.27;99340.47;10289563;28;813;-77
2023/10/18 03:26:41;;;;;;;;;;;;;;;18.43;55.06;99339.53;10288709;28;810;-78
2023/10/18 03:31:38;;;;;;;;;;;;;;;18.46;55.09;99335.88;10289368;28;1901;-77
2023/10/18 03:36:35;;;;;;;;;;;;;;;18.44;55.20;99327.19;10289086;28;849;-77
2023/10/18 03:41:34;;;;;;;;;;;;;;;18.38;54.98;99325.72;10287040;28;842;-77
2023/10/18 03:46:38;;;;;;;;;;;;;;;18.38;55.05;99315.16;10289209;28;935;-78
2023/10/18 03:51:36;;;;;;;;;;;;;;;18.38;54.89;99315.16;10288027;28;1960;-77
2023/10/18 03:56:36;;;;;;;;;;;;;;;18.37;55.21;99311.69;10288175;28;850;-78
2023/10/18 04:01:41;;;;;;;;;;;;;;;18.37;55.09;99302.91;10288485;28;846;-77
2023/10/18 04:06:37;;;;;;;;;;;;;;;18.37;55.04;99295.84;10287248;28;825;-78
2023/10/18 04:11:33;;;;;;;;;;;;;;;18.39;54.95;99295.75;10287749;28;1910;-78
2023/10/18 04:16:30;;;;;;;;;;;;;;;18.40;55.16;99285.13;10302269;28;1250;-78
2023/10/18 04:21:27;;;;;;;;;;;;;;;18.45;54.90;99281.41;10287508;28;925;-78
2023/10/18 04:26:25;;;;;;;;;;;;;;;18.43;54.97;99278.81;10286471;28;876;-77
2023/10/18 04:31:21;;;;;;;;;;;;;;;18.48;54.88;99265.41;10286793;28;1918;-78
2023/10/18 04:36:20;;;;;;;;;;;;;;;18.47;54.82;99259.28;10286123;28;905;-77
2023/10/18 04:41:23;;;;;;;;;;;;;;;18.46;54.98;99248.78;10285968;28;832;-77
2023/10/18 04:46:25;;;;;;;;;;;;;;;18.47;54.81;99240.81;10286338;28;868;-78
2023/10/18 04:51:28;;;;;;;;;;;;;;;18.48;54.81;99233.72;10285910;28;1906;-78
2023/10/18 04:56:45;;;;;;;;;;;;;;;18.46;54.82;99225.03;10286024;28;826;-78
2023/10/18 05:07:00;;;;;;;;;;;;;;;18.47;54.87;99218.81;10285696;28;796;-78
2023/10/18 05:11:57;;;;;;;;;;;;;;;18.47;55.03;99221.44;10284820;28;1967;-78
2023/10/18 05:16:53;;;;;;;;;;;;;;;18.48;54.89;99213.47;10284798;28;875;-77
2023/10/18 05:21:49;;;;;;;;;;;;;;;18.48;54.89;99207.34;10284690;28;969;-77
2023/10/18 05:26:53;;;;;;;;;;;;;;;18.47;54.66;99208.25;10284631;28;856;-77
2023/10/18 05:37:14;;;;;;;;;;;;;;;18.49;54.91;99201.13;10283971;28;628;-78
2023/10/18 05:42:13;;;;;;;;;;;;;;;18.46;54.85;99201.28;10284328;28;868;-77
2023/10/18 05:47:09;;;;;;;;;;;;;;;18.47;54.83;99188.03;10284816;28;926;-78
2023/10/18 05:57:07;;;;;;;;;;;;;;;18.46;54.69;99174.91;10284026;28;812;-78
2023/10/18 06:07:24;;;;;;;;;;;;;;;18.45;54.84;99163.50;10292146;28;675;-77
2023/10/18 06:12:23;;;;;;;;;;;;;;;18.44;54.89;99168.84;10291623;28;1975;-77
2023/10/18 06:17:19;;;;;;;;;;;;;;;18.45;54.90;99158.22;10290812;28;1575;-78
2023/10/18 06:22:16;;;;;;;;;;;;;;;18.44;54.83;99156.50;10291863;28;868;-78
2023/10/18 06:27:15;;;;;;;;;;;;;;;18.44;54.77;99156.50;10291136;28;921;-78
2023/10/18 06:32:14;;;;;;;;;;;;;;;18.48;54.76;99152.75;10291401;28;1941;-77
2023/10/18 06:37:10;;;;;;;;;;;;;;;18.44;54.86;99143.31;10291820;28;888;-78
2023/10/18 06:42:12;;;;;;;;;;;;;;;18.44;54.92;99148.56;10290562;28;865;-77
2023/10/18 06:47:13;;;;;;;;;;;;;;;18.46;54.69;99152.00;10290923;28;857;-78
2023/10/18 06:52:09;;;;;;;;;;;;;;;18.46;54.87;99149.34;10290389;28;1914;-78
2023/10/18 06:57:18;;;;;;;;;;;;;;;18.45;54.55;99144.19;10289951;28;802;-78
2023/10/18 07:02:14;;;;;;;;;;;;;;;18.46;54.77;99136.16;10290346;28;861;-77
2023/10/18 07:07:19;;;;;;;;;;;;;;;18.46;54.77;99146.72;10289548;28;913;-77
2023/10/18 07:12:19;;;;;;;;;;;;;;;18.45;54.81;99146.81;10289764;28;1949;-78
2023/10/18 07:17:15;;;;;;;;;;;;;;;18.46;55.02;99136.16;10289728;28;881;-77
2023/10/18 07:22:17;;;;;;;;;;;;;;;18.47;54.77;99134.38;10289571;28;1595;-78
2023/10/18 07:27:15;;;;;;;;;;;;;;;18.46;54.79;99132.66;10289016;28;859;-77
2023/10/18 07:32:14;;;;;;;;;;;;;;;18.47;54.84;99123.81;10288496;28;1902;-78
2023/10/18 07:37:24;;;;;;;;;;;;;;;18.47;54.60;99116.78;10289077;28;847;-78
2023/10/18 07:42:20;;;;;;;;;;;;;;;18.46;54.57;99107.13;10288204;28;849;-77
2023/10/18 07:47:19;;;;;;;;;;;;;;;18.45;54.79;99097.53;10288619;28;849;-78
2023/10/18 07:52:15;;;;;;;;;;;;;;;18.45;54.75;99101.97;10286949;28;1911;-78
2023/10/18 07:57:17;;;;;;;;;;;;;;;18.41;54.86;99082.78;10287740;28;912;-78
2023/10/18 08:02:14;;;;;;;;;;;;;;;18.37;55.12;99081.28;10287450;28;888;-78
2023/10/18 08:07:15;;;;;;;;;;;;;;;18.35;54.91;99077.88;10287274;28;840;-77
2023/10/18 08:12:29;;;;;;;;;;;;;;;18.34;54.96;99068.25;10287075;28;1894;-77
2023/10/18 08:17:33;;;;;;;;;;;;;;;18.32;55.09;99064.84;10286885;28;913;-78
2023/10/18 08:22:29;;;;;;;;;;;;;;;18.33;54.96;99053.34;10287283;28;838;-78
2023/10/18 08:27:25;;;;;;;;;;;;;;;18.32;54.87;99046.38;10286509;28;864;-78
2023/10/18 08:32:29;;;;;;;;;;;;;;;18.32;54.94;99036.69;10286952;28;1910;-77
2023/10/18 08:37:25;;;;;;;;;;;;;;;18.35;54.84;99035.66;10286342;28;794;-78
2023/10/18 08:42:21;;;;;;;;;;;;;;;18.37;54.76;99024.06;10285876;28;886;-78
2023/10/18 08:47:17;;;;;;;;;;;;;;;18.38;54.81;99027.56;10285787;28;779;-77
2023/10/18 08:52:16;;;;;;;;;;;;;;;18.39;54.68;99023.97;10286303;28;1902;-78
2023/10/18 08:57:14;;;;;;;;;;;;;;;18.39;54.72;99026.59;10285994;28;877;-77
2023/10/18 09:02:18;;;;;;;;;;;;;;;18.40;54.66;99007.22;10285275;28;798;-77
2023/10/18 09:07:22;;;;;;;;;;;;;;;18.42;54.85;99002.72;10285928;28;854;-78
2023/10/18 09:12:18;;;;;;;;;;;;;;;18.41;54.61;98998.34;10286374;28;1949;-78
2023/10/18 09:17:21;;;;;;;;;;;;;;;18.40;54.84;98999.31;10284859;28;964;-77
2023/10/18 09:22:17;;;;;;;;;;;;;;;18.38;54.77;99002.00;10284275;28;1238;-78
2023/10/18 09:27:13;;;;;;;;;;;;;;;18.34;54.84;98989.13;10285176;28;837;-77
2023/10/18 09:32:19;;;;;;;;;;;;;;;18.33;54.91;98980.31;10284490;28;1953;-77
2023/10/18 09:37:15;;;;;;;;;;;;;;;18.34;54.98;98973.28;10289438;28;826;-78
2023/10/18 09:42:16;;;;;;;;;;;;;;;18.34;54.92;98974.13;10293345;28;835;-78
2023/10/18 09:47:12;;;;;;;;;;;;;;;18.33;54.92;98976.84;10292877;28;882;-78
2023/10/18 09:52:11;;;;;;;;;;;;;;;18.30;54.93;98964.69;10284079;28;1997;-78
2023/10/18 09:57:07;;;;;;;;;;;;;;;18.30;55.06;98959.41;10291692;28;1185;-78
2023/10/18 10:02:15;;;;;;;;;;;;;;;18.30;54.92;98945.38;10292727;28;933;-78
2023/10/18 10:07:38;;;;;;;;;;;;;;;18.27;54.99;98932.34;10292691;28;841;-77
2023/10/18 10:12:34;;;;;;;;;;;;;;;18.25;54.89;98926.31;10291617;28;1948;-77
2023/10/18 10:17:30;;;;;;;;;;;;;;;18.20;54.99;98916.03;10292343;28;936;-77
2023/10/18 10:22:26;;;;;;;;;;;;;;;18.18;55.02;98929.31;10291328;28;860;-78
2023/10/18 10:27:27;;;;;;;;;;;;;;;18.18;55.00;98926.69;10291110;28;1751;-77
2023/10/18 10:32:26;;;;;;;;;;;;;;;18.15;55.06;98912.81;10290910;28;1898;-77
2023/10/18 10:37:23;;;;;;;;;;;;;;;18.10;55.08;98917.50;10291059;28;789;-77
2023/10/18 10:42:28;;;;;;;;;;;;;;;18.07;55.08;98910.59;10291158;28;920;-77
2023/10/18 10:47:30;;;;;;;;;;;;;;;18.04;55.43;98905.50;10289685;28;1202;-77
2023/10/18 10:52:30;;;;;;;;;;;;;;;18.01;55.31;98896.94;10291114;28;1961;-77
2023/10/18 10:57:27;;;;;;;;;;;;;;;18.01;55.23;98887.25;10289987;28;889;-77
2023/10/18 11:02:29;;;;;;;;;;;;;;;17.97;55.26;98877.78;10290170;28;846;-75
2023/10/18 11:07:25;;;;;;;;;;;;;;;17.95;55.32;98856.81;10290263;28;843;-75
2023/10/18 11:12:24;;;;;;;;;;;;;;;17.94;55.39;98854.25;10289376;28;1906;-78
2023/10/18 11:17:23;;;;;;;;;;;;;;;17.93;55.18;98842.88;10305279;28;868;-74
2023/10/18 11:22:23;;;;;;;;;;;;;;;17.93;55.34;98834.09;10289092;28;873;-75
2023/10/18 11:27:19;;;;;;;;;;;;;;;17.93;55.28;98824.41;10288901;28;921;-75
2023/10/18 11:32:18;;;;;;;;;;;;;;;17.91;55.39;98814.88;10288544;28;1894;-75
2023/10/18 11:37:23;;;;;;;;;;;;;;;17.88;55.51;98804.53;10288485;28;838;-75
2023/10/18 11:42:22;;;;;;;;;;;;;;;17.87;55.62;98797.56;10289196;28;880;-76
2023/10/18 11:47:21;;;;;;;;;;;;;;;17.86;55.84;98790.59;10288716;28;814;-75
2023/10/18 11:52:21;;;;;;;;;;;;;;;17.85;55.57;98775.72;10279908;28;1906;-76
2023/10/18 11:57:17;;;;;;;;;;;;;;;17.86;55.54;98765.06;10287636;28;1608;-75
2023/10/18 12:02:13;;;;;;;;;;;;;;;17.87;55.62;98744.84;10285847;28;1035;-75
2023/10/18 12:07:10;;;;;;;;;;;;;;;17.85;55.44;98744.94;10287320;28;774;-75
2023/10/18 12:12:07;;;;;;;;;;;;;;;17.91;55.41;98725.25;10287201;28;1971;-74
2023/10/18 12:17:03;;;;;;;;;;;;;;;17.92;55.46;98716.38;10286953;28;852;-75
2023/10/18 12:21:59;;;;;;;;;;;;;;;17.96;55.25;98708.22;10287333;28;886;-70
2023/10/18 12:26:55;;;;;;;;;;;;;;;18.05;54.83;98698.03;10287231;28;795;-70
2023/10/18 12:31:54;;;;;;;;;;;;;;;18.06;54.71;98689.22;10286040;28;1898;-70
2023/10/18 12:36:53;;;;;;;;;;;;;;;18.02;54.91;98672.72;10285905;28;835;-70
2023/10/18 12:41:58;;;;;;;;;;;;;;;18.07;54.58;98660.09;10285670;28;972;-70
2023/10/18 12:46:54;;;;;;;;;;;;;;;18.14;54.31;98648.22;10285660;28;759;-69
2023/10/18 12:52:39;;;;;;;;;;;;;;;18.23;54.14;98630.97;10286333;28;1914;-70
2023/10/18 12:57:17;;;;;;;;;;;;;;;18.29;54.00;98620.06;10286461;28;1867;-70
2023/10/18 13:02:41;;;;;;;;;;;;;;;18.34;54.02;98623.25;10286637;28;822;-70
2023/10/18 13:07:31;;;;;;;;;;;;;;;18.42;53.80;98619.25;10285776;28;1716;-70
2023/10/18 13:12:28;;;;;;;;;;;;;;;18.50;53.64;98602.00;10284555;28;1952;-70
2023/10/18 13:17:23;;;;;;;;;;;;;;;18.59;53.74;98592.63;10284614;28;984;-70
2023/10/18 13:22:19;;;;;;;;;;;;;;;18.58;53.64;98573.31;10284528;28;897;-70
2023/10/18 13:27:18;;;;;;;;;;;;;;;18.66;53.59;98567.56;10284429;28;794;-70
2023/10/18 13:32:15;;;;;;;;;;;;;;;18.71;53.51;98572.53;10284251;28;1943;-70
2023/10/18 13:37:12;;;;;;;;;;;;;;;18.74;53.44;98553.84;10284983;28;790;-71
2023/10/18 13:42:11;;;;;;;;;;;;;;;18.82;53.40;98541.00;10284109;28;962;-70
2023/10/18 13:47:08;;;;;;;;;;;;;;;18.85;53.20;98522.31;10284650;28;823;-69
2023/10/18 13:52:05;;;;;;;;;;;;;;;18.86;53.24;98515.25;10275181;28;1914;-70
2023/10/18 13:57:01;;;;;;;;;;;;;;;18.81;53.53;98504.97;10283800;28;985;-70
2023/10/18 14:01:57;;;;;;;;;;;;;;;18.77;53.70;98509.63;10283792;28;934;-70
2023/10/18 14:06:57;;;;;;;;;;;;;;;18.79;53.48;98493.72;10284421;28;836;-69
2023/10/18 14:11:53;;;;;;;;;;;;;;;18.82;53.48;98486.41;10284143;28;1961;-70
2023/10/18 14:16:49;;;;;;;;;;;;;;;18.85;53.45;98482.72;10283544;28;857;-70
2023/10/18 14:21:48;;;;;;;;;;;;;;;18.83;53.46;98466.97;10283380;28;879;-71
2023/10/18 14:26:44;;;;;;;;;;;;;;;18.86;53.51;98446.59;10291651;28;841;-70
2023/10/18 14:31:39;;;;;;;;;;;;;;;18.97;53.44;98426.44;10290208;28;1902;-71
2023/10/18 14:36:35;;;;;;;;;;;;;;;19.03;54.07;98418.09;10291272;28;838;-71
2023/10/18 14:41:31;;;;;;;;;;;;;;;19.02;54.08;98402.34;10290451;28;753;-70
2023/10/18 14:46:29;;;;;;;;;;;;;;;18.96;54.32;98395.69;10290219;28;896;-70
2023/10/18 14:51:25;;;;;;;;;;;;;;;18.91;54.41;98378.50;10290364;28;1902;-71
2023/10/18 14:56:22;;;;;;;;;;;;;;;18.86;54.42;98364.75;10290405;28;890;-70
2023/10/18 15:01:18;;;;;;;;;;;;;;;18.79;54.74;98359.06;10290512;28;849;-70
2023/10/18 15:06:17;;;;;;;;;;;;;;;18.81;54.52;98358.03;10289487;28;909;-71
2023/10/18 15:11:13;;;;;;;;;;;;;;;18.75;54.74;98349.66;10289774;28;2006;-70
2023/10/18 15:16:10;;;;;;;;;;;;;;;18.72;54.74;98337.50;10289117;28;833;-71
2023/10/18 15:21:09;;;;;;;;;;;;;;;18.66;54.81;98326.53;10288942;28;965;-72
2023/10/18 15:26:05;;;;;;;;;;;;;;;18.61;55.04;98325.06;10288717;28;906;-71
2023/10/18 15:31:01;;;;;;;;;;;;;;;18.61;54.71;98329.50;10288547;28;1984;-70
2023/10/18 15:35:57;;;;;;;;;;;;;;;18.61;54.64;98326.84;10287905;28;992;-73
2023/10/18 15:40:53;;;;;;;;;;;;;;;18.53;54.88;98314.19;10289035;28;867;-71
2023/10/18 15:45:52;;;;;;;;;;;;;;;18.56;54.75;98307.84;10288187;28;1028;-71
2023/10/18 15:50:51;;;;;;;;;;;;;;;18.60;54.21;98302.25;10280383;28;1965;-70
2023/10/18 15:55:46;;;;;;;;;;;;;;;18.61;54.34;98298.66;10288768;28;857;-71
2023/10/18 16:00:44;;;;;;;;;;;;;;;18.62;54.33;98275.75;10287685;28;830;-71
2023/10/18 16:05:39;;;;;;;;;;;;;;;18.67;54.00;98270.16;10288120;28;764;-70
2023/10/18 16:10:35;;;;;;;;;;;;;;;18.68;54.21;98261.28;10287200;28;1945;-70
2023/10/18 16:15:34;;;;;;;;;;;;;;;18.66;54.27;98277.22;10286456;28;1008;-71
2023/10/18 16:20:31;;;;;;;;;;;;;;;18.68;54.19;98262.13;10287419;28;786;-71
2023/10/18 16:25:27;;;;;;;;;;;;;;;18.68;54.16;98262.13;10286801;28;905;-71
2023/10/18 16:30:25;;;;;;;;;;;;;;;18.69;54.31;98255.06;10286393;28;1897;-71
2023/10/18 16:35:21;;;;;;;;;;;;;;;18.67;54.29;98254.31;10286926;28;790;-70
2023/10/18 16:40:18;;;;;;;;;;;;;;;18.70;54.29;98256.72;10286108;28;956;-71
2023/10/18 16:45:19;;;;;;;;;;;;;;;18.72;54.16;98253.03;10285286;28;913;-70
2023/10/18 16:50:16;;;;;;;;;;;;;;;18.69;54.38;98236.59;10285432;28;1982;-70
2023/10/18 16:55:12;;;;;;;;;;;;;;;18.70;54.24;98231.19;10286262;28;829;-70
2023/10/18 17:00:18;;;;;;;;;;;;;;;18.71;54.20;98213.56;10285397;28;825;-70
2023/10/18 17:05:13;;;;;;;;;;;;;;;18.73;54.30;98209.00;10285755;28;1584;-70
2023/10/18 17:10:09;;;;;;;;;;;;;;;18.71;54.32;98206.50;10285289;28;1894;-70
2023/10/18 17:15:06;;;;;;;;;;;;;;;18.70;54.22;98188.94;10284493;28;830;-71
2023/10/18 17:20:06;;;;;;;;;;;;;;;18.71;54.35;98190.66;10284872;28;863;-70
2023/10/18 17:25:02;;;;;;;;;;;;;;;18.70;54.36;98178.41;10284729;28;889;-72
2023/10/18 17:29:58;;;;;;;;;;;;;;;18.65;54.48;98188.44;10284536;28;1901;-70
2023/10/18 17:34:54;;;;;;;;;;;;;;;18.66;54.40;98178.75;10284585;28;882;-70
2023/10/18 17:39:50;;;;;;;;;;;;;;;18.70;54.19;98174.91;10283893;28;837;-70
2023/10/18 17:44:48;;;;;;;;;;;;;;;18.72;54.07;98167.75;10285033;28;890;-70
2023/10/18 17:49:43;;;;;;;;;;;;;;;18.69;54.21;98166.16;10275986;28;1914;-69
2023/10/18 17:54:39;;;;;;;;;;;;;;;18.72;54.27;98171.22;10284171;28;968;-70
2023/10/18 17:59:35;;;;;;;;;;;;;;;18.74;54.21;98160.56;10288806;28;934;-70
2023/10/18 18:04:33;;;;;;;;;;;;;;;18.74;54.15;98144.72;10291522;28;1012;-70
2023/10/18 18:09:30;;;;;;;;;;;;;;;18.73;54.30;98148.28;10292689;28;1956;-70
2023/10/18 18:14:26;;;;;;;;;;;;;;;18.75;54.21;98138.50;10291736;28;919;-70
2023/10/18 18:19:24;;;;;;;;;;;;;;;18.77;54.21;98123.41;10292294;28;849;-70
2023/10/18 18:24:20;;;;;;;;;;;;;;;18.77;54.26;98107.56;10291352;28;1016;-70
2023/10/18 18:29:16;;;;;;;;;;;;;;;18.73;54.15;98100.78;10290543;28;1894;-70
2023/10/18 18:34:12;;;;;;;;;;;;;;;18.77;54.24;98094.38;10291618;28;866;-70
2023/10/18 18:39:11;;;;;;;;;;;;;;;18.78;54.16;98088.13;10291437;28;937;-70
2023/10/18 18:44:07;;;;;;;;;;;;;;;18.76;54.18;98075.06;10290695;28;837;-69
2023/10/18 18:49:03;;;;;;;;;;;;;;;18.76;54.19;98075.06;10290321;28;1086;-70
2023/10/18 18:53:59;;;;;;;;;;;;;;;18.77;54.21;98070.63;10290880;28;1965;-70
2023/10/18 18:58:55;;;;;;;;;;;;;;;18.79;54.01;98061.63;10289497;28;1008;-70
2023/10/18 19:03:52;;;;;;;;;;;;;;;18.79;54.18;98066.06;10290178;28;819;-70
2023/10/18 19:08:48;;;;;;;;;;;;;;;18.77;54.23;98060.06;10289763;28;774;-70
2023/10/18 19:13:43;;;;;;;;;;;;;;;18.80;54.21;98078.31;10289583;28;1942;-71
2023/10/18 19:18:40;;;;;;;;;;;;;;;18.81;54.21;98072.06;10289964;28;864;-71
2023/10/18 19:23:40;;;;;;;;;;;;;;;18.79;54.42;98053.72;10289147;28;824;-70
2023/10/18 19:28:36;;;;;;;;;;;;;;;18.80;54.25;98042.19;10288945;28;944;-70
2023/10/18 19:33:32;;;;;;;;;;;;;;;18.78;54.22;98030.06;10289358;28;1951;-70
2023/10/18 19:38:27;;;;;;;;;;;;;;;18.81;54.04;98021.91;10289189;28;841;-70
2023/10/18 19:43:23;;;;;;;;;;;;;;;18.80;54.16;98018.44;10288387;28;817;-71
2023/10/18 19:48:19;;;;;;;;;;;;;;;18.79;53.98;98013.28;10283563;28;1007;-71
2023/10/18 19:53:15;;;;;;;;;;;;;;;18.75;54.40;97996.81;10284996;28;1917;-71
2023/10/18 19:58:11;;;;;;;;;;;;;;;18.72;54.37;97977.72;10287244;28;912;-70
2023/10/18 20:03:07;;;;;;;;;;;;;;;18.68;54.64;97977.13;10287630;28;775;-69
2023/10/18 20:08:03;;;;;;;;;;;;;;;18.65;54.68;97956.22;10287631;28;864;-70
2023/10/18 20:12:58;;;;;;;;;;;;;;;18.60;54.69;97951.28;10287723;28;1906;-70
2023/10/18 20:17:55;;;;;;;;;;;;;;;18.57;54.92;97938.31;10287624;28;842;-70
2023/10/18 20:22:51;;;;;;;;;;;;;;;18.55;54.82;97929.69;10285962;28;832;-70
2023/10/18 20:27:47;;;;;;;;;;;;;;;18.51;54.90;97922.13;10287267;28;790;-70
2023/10/18 20:32:44;;;;;;;;;;;;;;;18.49;55.02;97918.75;10286378;28;1959;-70
2023/10/18 20:37:41;;;;;;;;;;;;;;;18.46;55.01;97917.19;10286165;28;958;-70
2023/10/18 20:42:37;;;;;;;;;;;;;;;18.45;54.95;97909.41;10285465;28;1006;-70
2023/10/18 20:47:33;;;;;;;;;;;;;;;18.43;54.84;97908.66;10285268;28;890;-71
2023/10/18 20:52:31;;;;;;;;;;;;;;;18.41;55.13;97914.03;10286022;28;1906;-70
2023/10/18 20:57:30;;;;;;;;;;;;;;;18.39;55.09;97910.66;10286211;28;1628;-70
2023/10/18 21:02:26;;;;;;;;;;;;;;;18.36;55.19;97908.25;10286982;28;897;-69
2023/10/18 21:07:24;;;;;;;;;;;;;;;18.33;55.22;97904.06;10285836;28;885;-70
2023/10/18 21:12:26;;;;;;;;;;;;;;;18.31;55.27;97894.59;10285015;28;1898;-70
2023/10/18 21:17:22;;;;;;;;;;;;;;;18.31;55.07;97891.94;10285576;28;942;-70
2023/10/18 21:22:19;;;;;;;;;;;;;;;18.28;55.10;97892.19;10285367;28;874;-70
2023/10/18 21:27:15;;;;;;;;;;;;;;;18.26;55.27;97878.25;10285324;28;929;-69
2023/10/18 21:32:11;;;;;;;;;;;;;;;18.25;55.06;97874.78;10284662;28;1894;-70
2023/10/18 21:37:09;;;;;;;;;;;;;;;18.26;55.06;97865.06;10284494;28;773;-70
2023/10/18 21:42:07;;;;;;;;;;;;;;;18.24;55.14;97856.47;10285137;28;871;-70
2023/10/18 21:47:03;;;;;;;;;;;;;;;18.23;55.14;97847.69;10285270;28;951;-70
2023/10/18 21:52:00;;;;;;;;;;;;;;;18.22;55.26;97847.81;10276307;28;1918;-69
2023/10/18 21:56:56;;;;;;;;;;;;;;;18.19;55.09;97827.78;10284251;28;845;-70
2023/10/18 22:01:52;;;;;;;;;;;;;;;18.17;55.28;97801.53;10284665;28;782;-70
2023/10/18 22:06:49;;;;;;;;;;;;;;;18.16;55.06;97794.59;10284969;28;801;-70
2023/10/18 22:11:48;;;;;;;;;;;;;;;18.15;55.25;97776.22;10283187;28;1906;-70
2023/10/18 22:16:50;;;;;;;;;;;;;;;18.13;55.38;97775.50;10283823;28;791;-70
2023/10/18 22:21:46;;;;;;;;;;;;;;;18.13;55.34;97776.38;10283429;28;1182;-70
2023/10/18 22:26:46;;;;;;;;;;;;;;;18.11;55.45;97775.63;10283658;28;838;-70
2023/10/18 22:31:43;;;;;;;;;;;;;;;18.09;55.46;97787.25;10284206;28;1961;-70
2023/10/18 22:36:42;;;;;;;;;;;;;;;18.07;55.30;97761.00;10284121;28;850;-70
2023/10/18 22:41:46;;;;;;;;;;;;;;;18.03;55.33;97753.47;10283404;28;873;-70
2023/10/18 22:46:47;;;;;;;;;;;;;;;18.05;55.28;97755.03;10289162;28;898;-70
2023/10/18 22:51:58;;;;;;;;;;;;;;;18.06;55.37;97745.31;10290552;28;1914;-70
2023/10/18 22:56:54;;;;;;;;;;;;;;;18.06;55.23;97727.69;10291921;28;811;-70
2023/10/18 23:01:50;;;;;;;;;;;;;;;18.01;55.32;97737.75;10290857;28;810;-70
2023/10/18 23:06:49;;;;;;;;;;;;;;;18.01;55.52;97734.28;10289778;28;919;-70
2023/10/18 23:11:57;;;;;;;;;;;;;;;18.01;55.34;97740.38;10290494;28;1992;-70
2023/10/18 23:21:49;;;;;;;;;;;;;;;17.98;55.26;97729.25;10289871;28;795;-70
2023/10/18 23:32:29;;;;;;;;;;;;;;;17.94;55.44;97713.63;10289014;28;1897;-70
2023/10/18 23:37:30;;;;;;;;;;;;;;;17.93;55.33;97705.88;10288994;28;892;-70
2023/10/18 23:42:26;;;;;;;;;;;;;;;17.90;55.42;97688.50;10288477;28;985;-69
2023/10/18 23:52:49;;;;;;;;;;;;;;;17.89;55.59;97667.50;10279927;28;1910;-70
2023/10/18 23:57:46;;;;;;;;;;;;;;;17.88;55.75;97653.50;10288098;28;811;-70
